EST,Max TemperatureF,Mean TemperatureF,Min TemperatureF,Max Dew PointF,MeanDew PointF,Min DewpointF,Max Humidity, Mean Humidity, Min Humidity, Max Sea Level PressureIn, Mean Sea Level PressureIn, Min Sea Level PressureIn, Max VisibilityMiles, Mean VisibilityMiles, Min VisibilityMiles, Max Wind SpeedMPH, Mean Wind SpeedMPH, Max Gust SpeedMPH,PrecipitationIn, CloudCover, Events, WindDirDegrees
2013-12-1,53,46,39,37,31,21,81,58,42,30.19,30.09,29.96,10,10,10,10,7,,0.00,5,,200
2013-12-2,55,44,33,41,37,30,93,73,54,29.96,29.84,29.75,10,10,5,7,3,,0.00,2,,147
2013-12-3,57,50,42,50,45,39,100,85,67,29.83,29.78,29.75,10,6,0,10,6,,0.00,5,,149
2013-12-4,68,59,50,59,54,46,100,81,64,29.80,29.74,29.65,10,6,1,20,10,30,0.00,4,,168
2013-12-5,64,47,28,57,36,25,93,82,70,30.24,30.02,29.78,10,9,4,17,11,25,0.41,7,,325
2013-12-6,30,26,23,27,22,18,93,86,80,30.45,30.27,30.17,10,5,0,0,0,,0.40,7,,-1
2013-12-7,21,16,10,18,12,7,86,79,73,30.63,30.55,30.45,10,10,8,0,0,,0.00,1,,-1
2013-12-8,32,26,21,30,23,16,100,87,74,30.49,30.20,30.04,10,7,0,,,,0.00,7,,-1
2013-12-9,32,28,23,30,21,16,93,79,64,30.28,30.21,30.07,10,9,2,12,6,,0.00,5,,312
2013-12-10,28,21,14,18,16,10,93,77,55,30.38,30.29,30.22,10,8,1,16,7,18,0.00,1,,247
2013-12-11,33,22,12,25,16,7,100,80,64,30.58,30.43,30.36,10,8,2,18,7,24,0.00,1,,242
2013-12-12,24,12,1,10,4,-2,92,66,42,30.62,30.53,30.37,10,10,10,10,6,,0.00,0,,213
2013-12-13,37,28,19,32,19,9,93,68,52,30.37,30.24,30.10,10,10,2,23,6,32,0.01,1,,166
2013-12-14,37,34,32,36,32,27,100,90,80,30.09,29.90,29.76,10,7,0,26,9,26,0.26,8,,324
2013-12-15,32,29,26,28,23,21,87,78,74,30.19,30.13,30.02,10,10,7,18,12,23,0.00,8,,268
2013-12-16,44,37,30,34,30,27,93,79,66,30.15,30.07,30.03,10,9,7,15,9,,0.00,2,,197
2013-12-17,37,32,28,32,26,23,93,82,70,30.24,30.15,30.04,10,8,3,15,8,,0.00,4,,285
2013-12-18,42,32,21,25,20,16,80,58,42,30.32,30.22,30.07,10,10,10,15,8,,0.00,0,,204
2013-12-19,57,47,37,45,36,23,76,63,49,30.10,30.04,29.95,10,10,10,21,12,28,0.00,2,,187
2013-12-20,62,58,53,57,50,43,88,76,63,29.95,29.89,29.83,10,10,7,21,16,29,0.00,7,,193
2013-12-21,66,55,44,63,53,43,100,91,82,29.83,29.67,29.46,10,8,2,24,11,56,3.05,7,Thunderstorm,177
2013-12-22,60,48,35,59,39,28,94,88,75,30.15,29.88,29.51,10,7,2,23,14,32,0.01,8,,260
2013-12-23,33,30,26,28,22,18,81,75,69,30.47,30.38,30.16,10,10,5,16,11,22,0.00,8,,311
2013-12-24,24,18,12,19,10,7,80,70,58,30.63,30.54,30.46,10,10,10,16,9,21,0.00,2,,335
2013-12-25,35,26,17,27,18,10,79,67,52,30.45,30.35,30.26,10,10,10,14,7,18,0.00,5,,187
2013-12-26,41,34,26,28,24,21,93,71,49,30.41,30.35,30.26,10,9,5,16,7,22,0.00,2,,224
2013-12-27,48,37,26,34,26,21,80,68,53,30.44,30.37,30.34,10,10,10,13,6,,0.00,0,,190
2013-12-28,46,38,30,34,28,25,86,65,53,30.33,30.21,30.02,10,10,10,13,7,,0.00,0,,174
2013-12-29,48,38,28,41,33,23,93,85,71,30.16,29.99,29.89,10,7,2,20,8,26,0.04,6,,250
2013-12-30,26,22,19,23,15,10,86,69,51,30.32,30.26,30.17,10,10,9,15,9,18,0.00,4,,311
2013-12-31,37,29,21,23,19,14,80,66,48,30.43,30.32,30.24,10,10,10,13,7,,0.00,2,,213